Time;durP1;ratioP1;P1;durP2;ratioP2;P2;SDS_P1;SDS_P2;PMS_P1;PMS_P2;Temp;Humidity;BMP_temperature;BMP_pressure;BME280_temperature;BME280_humidity;BME280_pressure;Samples;Min_cycle;Max_cycle;Signal;HPM_P1;HPM_P2
2021/06/06 00:00:30;;;;;;;21.00;15.13;;;17.90;96.30;;;;;;4919356;29;20273;-70
2021/06/06 00:02:56;;;;;;;23.73;14.97;;;18.00;95.50;;;;;;4926605;29;20235;-70
2021/06/06 00:05:30;;;;;;;20.23;14.77;;;18.10;94.40;;;;;;4904002;29;20258;-70
2021/06/06 00:07:55;;;;;;;22.67;14.60;;;18.00;94.60;;;;;;4921171;29;20237;-70
2021/06/06 00:10:21;;;;;;;21.37;15.07;;;18.00;95.10;;;;;;4919428;29;20660;-70
2021/06/06 00:12:47;;;;;;;22.87;15.90;;;18.00;95.20;;;;;;4915018;29;20232;-71
2021/06/06 00:15:15;;;;;;;24.80;16.90;;;18.00;95.10;;;;;;4922733;29;20344;-70
2021/06/06 00:17:40;;;;;;;23.57;16.63;;;18.00;95.00;;;;;;4902839;29;20234;-70
2021/06/06 00:20:09;;;;;;;26.37;17.43;;;18.00;96.00;;;;;;4906107;29;20238;-70
2021/06/06 00:22:35;;;;;;;28.63;18.17;;;17.90;95.90;;;;;;4921258;29;20208;-70
2021/06/06 00:25:00;;;;;;;27.03;18.53;;;17.80;96.30;;;;;;4909556;29;20205;-68
2021/06/06 00:27:26;;;;;;;28.60;18.53;;;17.90;97.20;;;;;;4921520;28;20238;-69
2021/06/06 00:29:52;;;;;;;32.50;20.80;;;17.90;97.00;;;;;;4921811;29;20226;-70
2021/06/06 00:32:19;;;;;;;32.97;21.73;;;17.90;97.50;;;;;;4919548;29;20736;-70
2021/06/06 00:34:45;;;;;;;34.77;22.27;;;17.80;98.10;;;;;;4919917;29;20192;-70
2021/06/06 00:37:12;;;;;;;34.87;22.40;;;17.70;98.30;;;;;;4921500;29;20299;-70
2021/06/06 00:39:37;;;;;;;34.07;21.77;;;17.70;98.80;;;;;;4918962;29;20308;-70
2021/06/06 00:42:04;;;;;;;37.90;23.53;;;17.60;98.90;;;;;;4921829;29;20262;-70
2021/06/06 00:44:30;;;;;;;35.27;23.97;;;17.60;98.60;;;;;;4921118;29;20243;-70
2021/06/06 00:46:56;;;;;;;40.60;24.40;;;17.60;99.10;;;;;;4919702;29;20670;-70
2021/06/06 00:49:22;;;;;;;37.27;24.30;;;17.60;99.60;;;;;;4921326;29;20198;-70
2021/06/06 00:51:54;;;;;;;38.83;24.33;;;17.50;99.40;;;;;;4917705;28;20232;-70
2021/06/06 00:54:27;;;;;;;40.77;25.90;;;17.50;99.30;;;;;;4919903;29;20237;-70
2021/06/06 00:57:17;;;;;;;36.47;25.00;;;17.50;98.50;;;;;;4920329;29;20688;-69
2021/06/06 00:59:46;;;;;;;40.13;24.03;;;17.60;98.80;;;;;;4918325;28;20326;-70
2021/06/06 01:02:12;;;;;;;39.40;23.23;;;17.60;98.30;;;;;;4916760;29;20229;-70
2021/06/06 01:04:39;;;;;;;40.13;24.27;;;17.60;98.20;;;;;;4919419;29;20712;-70
2021/06/06 01:07:08;;;;;;;39.63;25.87;;;17.60;97.90;;;;;;4925167;29;20190;-70
2021/06/06 01:09:34;;;;;;;40.10;24.73;;;17.60;97.80;;;;;;4904475;29;20221;-70
2021/06/06 01:12:05;;;;;;;40.70;25.60;;;17.60;97.80;;;;;;4919835;29;20238;-70
2021/06/06 01:14:43;;;;;;;41.40;25.80;;;17.60;97.60;;;;;;4920744;29;20678;-70
2021/06/06 01:17:30;;;;;;;39.50;25.17;;;17.70;97.60;;;;;;4919034;29;20234;-70
2021/06/06 01:20:13;;;;;;;41.87;25.87;;;17.70;97.10;;;;;;4918667;29;20294;-70
2021/06/06 01:23:01;;;;;;;40.47;25.63;;;17.60;97.20;;;;;;4921774;29;20218;-70
2021/06/06 01:25:29;;;;;;;37.63;24.13;;;17.60;97.30;;;;;;4919816;29;20191;-70
2021/06/06 01:28:24;;;;;;;43.27;26.57;;;17.60;97.10;;;;;;4921194;29;20230;-70
2021/06/06 01:30:55;;;;;;;40.93;25.20;;;17.60;97.00;;;;;;4898738;29;20237;-70
2021/06/06 01:33:29;;;;;;;43.10;24.63;;;17.50;97.00;;;;;;4920380;29;20354;-70
2021/06/06 01:35:59;;;;;;;42.27;25.60;;;17.50;97.20;;;;;;4921448;29;20304;-69
2021/06/06 01:38:38;;;;;;;38.20;25.40;;;17.60;97.10;;;;;;4921907;29;20300;-69
2021/06/06 01:41:11;;;;;;;40.03;25.30;;;17.60;96.40;;;;;;4920972;29;20238;-70
2021/06/06 01:43:40;;;;;;;42.67;26.67;;;17.60;96.50;;;;;;4918655;29;21170;-70
2021/06/06 01:46:10;;;;;;;43.40;26.20;;;17.50;96.10;;;;;;4923607;29;20521;-69
2021/06/06 01:48:38;;;;;;;39.20;24.93;;;17.60;96.80;;;;;;4925133;29;20251;-69
2021/06/06 01:51:08;;;;;;;38.10;24.23;;;17.60;97.30;;;;;;4923854;29;20725;-70
2021/06/06 01:53:40;;;;;;;39.73;24.80;;;17.60;97.00;;;;;;4922216;29;20323;-70
2021/06/06 01:56:08;;;;;;;38.37;24.50;;;17.70;96.20;;;;;;4924572;29;20232;-70
2021/06/06 01:58:37;;;;;;;36.37;23.53;;;17.70;95.90;;;;;;4924740;29;20201;-71
2021/06/06 02:01:11;;;;;;;36.07;24.13;;;17.70;96.20;;;;;;4923763;29;20256;-70
2021/06/06 02:03:36;;;;;;;39.87;23.27;;;17.70;95.50;;;;;;4921380;29;20231;-70
2021/06/06 02:06:03;;;;;;;41.03;25.03;;;17.70;95.20;;;;;;4921947;29;20458;-69
2021/06/06 02:08:32;;;;;;;39.27;25.00;;;17.60;95.40;;;;;;4925480;29;20640;-70
2021/06/06 02:11:05;;;;;;;40.27;23.87;;;17.60;96.40;;;;;;4921053;29;21194;-70
2021/06/06 02:13:40;;;;;;;39.63;24.90;;;17.60;96.10;;;;;;4920277;29;20546;-69
2021/06/06 02:16:06;;;;;;;33.63;23.00;;;17.60;95.40;;;;;;4921144;29;20695;-70
2021/06/06 02:18:33;;;;;;;36.93;24.27;;;17.60;95.20;;;;;;4923368;29;20245;-70
2021/06/06 02:20:59;;;;;;;40.87;25.43;;;17.70;95.40;;;;;;4914719;29;20585;-70
2021/06/06 02:23:28;;;;;;;43.30;26.10;;;17.60;94.80;;;;;;4922166;29;20229;-70
2021/06/06 02:26:03;;;;;;;40.07;26.73;;;17.60;94.50;;;;;;4924578;29;20366;-70
2021/06/06 02:28:46;;;;;;;43.97;26.23;;;17.70;94.50;;;;;;4921627;29;20188;-70
2021/06/06 02:31:24;;;;;;;44.10;24.50;;;17.60;94.60;;;;;;4925371;29;20224;-70
2021/06/06 02:34:05;;;;;;;43.40;25.80;;;17.60;94.50;;;;;;4919069;29;20707;-70
2021/06/06 02:36:33;;;;;;;42.43;25.73;;;17.50;94.60;;;;;;4922755;29;20291;-70
2021/06/06 02:39:06;;;;;;;47.70;26.77;;;17.60;94.90;;;;;;4927272;29;20747;-70
2021/06/06 02:41:40;;;;;;;41.77;25.77;;;17.60;94.40;;;;;;4926407;29;20335;-70
2021/06/06 02:44:09;;;;;;;42.27;26.23;;;17.60;94.40;;;;;;4923142;29;20880;-70
2021/06/06 02:46:37;;;;;;;39.17;26.27;;;17.70;93.60;;;;;;4922749;29;20204;-70
2021/06/06 02:49:08;;;;;;;41.97;26.70;;;17.40;93.90;;;;;;4909028;29;20202;-70
2021/06/06 02:51:48;;;;;;;42.43;27.57;;;17.60;94.20;;;;;;4923728;29;20224;-70
2021/06/06 02:54:23;;;;;;;44.37;25.83;;;17.60;93.90;;;;;;4924956;29;20697;-70
2021/06/06 02:56:53;;;;;;;45.13;27.63;;;17.60;94.20;;;;;;4923819;29;20785;-70
2021/06/06 02:59:25;;;;;;;42.77;25.93;;;17.50;93.60;;;;;;4922280;29;20243;-70
2021/06/06 03:02:05;;;;;;;39.47;25.00;;;17.50;93.90;;;;;;4922348;29;20329;-70
2021/06/06 03:04:32;;;;;;;40.47;25.57;;;17.50;94.60;;;;;;4923605;29;20223;-70
2021/06/06 03:07:01;;;;;;;36.40;24.87;;;17.50;94.80;;;;;;4925636;29;20275;-70
2021/06/06 03:09:28;;;;;;;41.17;25.47;;;17.50;94.30;;;;;;4924521;28;20324;-68
2021/06/06 03:11:56;;;;;;;34.63;23.47;;;17.60;94.00;;;;;;4922149;29;20759;-69
2021/06/06 03:14:25;;;;;;;36.97;24.13;;;17.50;93.60;;;;;;4922560;29;20228;-69
2021/06/06 03:17:02;;;;;;;36.93;24.07;;;17.50;93.70;;;;;;4921707;29;20342;-69
2021/06/06 03:19:33;;;;;;;38.77;24.07;;;17.50;93.20;;;;;;4921407;29;20225;-69
2021/06/06 03:22:00;;;;;;;35.40;25.43;;;17.50;93.20;;;;;;4922733;29;20276;-68
2021/06/06 03:24:31;;;;;;;37.70;24.80;;;17.40;92.60;;;;;;4922068;29;20323;-70
2021/06/06 03:26:57;;;;;;;38.97;25.00;;;17.30;93.60;;;;;;4922466;29;20276;-69
2021/06/06 03:29:29;;;;;;;37.53;24.97;;;17.30;93.60;;;;;;4922665;29;20623;-69
2021/06/06 03:32:14;;;;;;;33.07;23.60;;;17.30;93.00;;;;;;4919720;29;20234;-70
2021/06/06 03:34:39;;;;;;;40.87;26.77;;;17.30;93.40;;;;;;4924556;29;20189;-69
2021/06/06 03:37:06;;;;;;;41.90;26.00;;;17.20;93.50;;;;;;4919364;29;20278;-69
2021/06/06 03:39:32;;;;;;;42.33;26.47;;;17.30;94.00;;;;;;4917438;29;20736;-70
2021/06/06 03:41:59;;;;;;;37.33;25.37;;;17.20;93.20;;;;;;4921790;29;20224;-69
2021/06/06 03:44:26;;;;;;;36.10;23.90;;;17.20;94.20;;;;;;4919019;29;20241;-69
2021/06/06 03:46:53;;;;;;;38.47;24.23;;;17.20;93.80;;;;;;4920400;29;21235;-69
2021/06/06 03:49:19;;;;;;;34.20;22.33;;;17.10;93.80;;;;;;4920425;29;20204;-69
2021/06/06 03:51:46;;;;;;;39.70;25.43;;;17.10;93.70;;;;;;4920383;29;20577;-69
2021/06/06 03:54:13;;;;;;;35.60;23.57;;;17.20;93.80;;;;;;4918780;29;20236;-69
2021/06/06 03:56:41;;;;;;;34.67;22.87;;;17.10;94.20;;;;;;4909676;29;20226;-69
2021/06/06 03:59:07;;;;;;;33.33;22.17;;;17.10;93.80;;;;;;4922400;29;20331;-70
2021/06/06 04:01:33;;;;;;;31.03;21.13;;;17.10;93.70;;;;;;4923628;29;20189;-70
2021/06/06 04:03:58;;;;;;;31.07;21.30;;;17.20;93.10;;;;;;4910896;29;20200;-69
2021/06/06 04:06:25;;;;;;;30.60;21.20;;;17.20;93.40;;;;;;4901770;29;20307;-69
2021/06/06 04:08:51;;;;;;;31.23;19.53;;;17.20;93.40;;;;;;4918440;29;20598;-69
2021/06/06 04:11:17;;;;;;;28.47;19.97;;;17.30;92.70;;;;;;4903058;29;20821;-69
2021/06/06 04:13:43;;;;;;;27.63;19.47;;;17.20;92.80;;;;;;4916177;29;20241;-69
2021/06/06 04:16:09;;;;;;;28.77;19.70;;;17.20;93.20;;;;;;4923419;29;20341;-69
2021/06/06 04:18:36;;;;;;;25.60;18.47;;;17.20;92.70;;;;;;4921571;29;20237;-69
2021/06/06 04:21:08;;;;;;;22.67;17.23;;;17.30;92.50;;;;;;4921687;29;20259;-69
2021/06/06 04:23:35;;;;;;;23.23;16.27;;;17.20;92.40;;;;;;4904667;29;20756;-69
2021/06/06 04:26:00;;;;;;;18.43;14.83;;;17.20;92.40;;;;;;4918316;29;20234;-68
2021/06/06 04:28:26;;;;;;;20.23;15.37;;;17.30;92.40;;;;;;4924109;29;20192;-68
2021/06/06 04:30:52;;;;;;;19.90;15.00;;;17.30;91.20;;;;;;4919881;29;20229;-68
2021/06/06 04:33:18;;;;;;;19.77;14.40;;;17.30;91.60;;;;;;4919230;29;20228;-69
2021/06/06 04:35:44;;;;;;;19.00;14.40;;;17.40;92.00;;;;;;4921767;29;20228;-69
2021/06/06 04:38:13;;;;;;;18.73;13.50;;;17.40;91.10;;;;;;4906800;29;20557;-69
2021/06/06 04:40:39;;;;;;;19.10;13.07;;;17.40;91.30;;;;;;4919530;29;20258;-69
2021/06/06 04:43:06;;;;;;;16.30;12.70;;;17.50;91.30;;;;;;4919684;29;20201;-69
2021/06/06 04:45:32;;;;;;;15.60;12.53;;;17.50;90.90;;;;;;4909246;29;20286;-70
2021/06/06 04:48:12;;;;;;;17.20;13.53;;;17.60;90.40;;;;;;4922479;29;20233;-69
2021/06/06 04:50:38;;;;;;;18.53;12.53;;;17.50;90.60;;;;;;4917237;29;20233;-69
2021/06/06 04:53:04;;;;;;;16.17;12.50;;;17.50;90.80;;;;;;4920626;29;20682;-70
2021/06/06 04:55:29;;;;;;;19.20;12.97;;;17.50;90.80;;;;;;4921859;29;20203;-69
2021/06/06 04:57:55;;;;;;;15.43;11.90;;;17.50;90.70;;;;;;4920614;29;20582;-70
2021/06/06 05:00:24;;;;;;;14.80;11.20;;;17.60;90.60;;;;;;4918911;29;20266;-70
2021/06/06 05:02:52;;;;;;;14.17;10.97;;;17.50;90.60;;;;;;4919666;29;20228;-71
2021/06/06 05:05:17;;;;;;;18.23;11.93;;;17.60;90.40;;;;;;4920937;29;20226;-69
2021/06/06 05:07:50;;;;;;;14.40;11.23;;;17.60;90.80;;;;;;4920169;29;20521;-69
2021/06/06 05:10:16;;;;;;;13.53;10.50;;;17.60;90.50;;;;;;4919452;29;20205;-69
2021/06/06 05:12:41;;;;;;;12.23;9.33;;;17.60;89.70;;;;;;4918026;29;20232;-69
2021/06/06 05:15:08;;;;;;;10.93;9.07;;;17.50;89.90;;;;;;4918190;29;20232;-69
2021/06/06 05:17:35;;;;;;;13.63;10.10;;;17.70;90.00;;;;;;4918410;28;20265;-70
2021/06/06 05:20:02;;;;;;;14.63;9.93;;;17.70;87.70;;;;;;4922813;29;20854;-69
2021/06/06 05:22:28;;;;;;;12.53;10.17;;;17.80;87.80;;;;;;4908394;29;20282;-69
2021/06/06 05:24:54;;;;;;;14.73;9.80;;;17.70;87.80;;;;;;4920720;29;20307;-70
2021/06/06 05:27:19;;;;;;;14.30;9.57;;;17.70;88.30;;;;;;4921218;29;20233;-69
2021/06/06 05:29:45;;;;;;;12.63;9.57;;;17.70;87.30;;;;;;4924967;28;20247;-69
2021/06/06 05:32:10;;;;;;;11.97;9.03;;;17.80;87.80;;;;;;4906105;29;20231;-69
2021/06/06 05:34:37;;;;;;;10.97;9.13;;;17.90;87.80;;;;;;4924176;29;20246;-70
2021/06/06 05:37:03;;;;;;;11.13;8.63;;;18.00;86.40;;;;;;4924087;29;20196;-69
2021/06/06 05:39:28;;;;;;;10.67;8.57;;;18.10;85.10;;;;;;4922682;29;20242;-69
2021/06/06 05:41:54;;;;;;;12.37;9.10;;;18.20;84.80;;;;;;4923315;29;20682;-69
2021/06/06 05:44:20;;;;;;;12.83;9.37;;;18.20;82.20;;;;;;4924493;29;20287;-69
2021/06/06 05:46:45;;;;;;;12.33;9.37;;;18.30;83.60;;;;;;4923060;29;20217;-69
2021/06/06 05:49:11;;;;;;;11.97;8.90;;;18.40;83.00;;;;;;4924071;29;20205;-70
2021/06/06 05:51:37;;;;;;;9.90;8.90;;;18.40;81.60;;;;;;4921636;28;20244;-70
2021/06/06 05:54:02;;;;;;;11.67;8.67;;;18.40;81.70;;;;;;4923378;29;20644;-70
2021/06/06 05:56:28;;;;;;;12.23;8.60;;;18.40;82.50;;;;;;4921968;29;20234;-70
2021/06/06 05:58:54;;;;;;;11.33;8.20;;;18.60;83.00;;;;;;4920495;29;20871;-70
2021/06/06 06:01:20;;;;;;;11.17;8.70;;;18.70;82.40;;;;;;4905232;29;20846;-70
2021/06/06 06:03:46;;;;;;;10.20;8.13;;;18.70;80.30;;;;;;4921558;29;20235;-70
2021/06/06 06:06:11;;;;;;;10.50;7.93;;;18.80;79.90;;;;;;4924893;29;20242;-69
2021/06/06 06:08:40;;;;;;;10.67;7.53;;;19.00;80.00;;;;;;4924308;29;20700;-69
2021/06/06 06:11:09;;;;;;;9.90;8.03;;;19.10;79.20;;;;;;4921793;29;20235;-69
2021/06/06 06:13:35;;;;;;;9.57;8.07;;;19.10;76.90;;;;;;4924809;29;20194;-71
2021/06/06 06:16:06;;;;;;;9.80;8.10;;;19.00;77.90;;;;;;4924080;29;20184;-70
2021/06/06 06:18:31;;;;;;;10.03;8.77;;;18.90;77.80;;;;;;4924354;29;20282;-70
2021/06/06 06:20:58;;;;;;;12.03;9.20;;;18.90;79.00;;;;;;4924327;29;20266;-69
2021/06/06 06:23:23;;;;;;;13.27;9.33;;;18.90;79.00;;;;;;4926030;29;20685;-70
2021/06/06 06:25:50;;;;;;;13.70;9.13;;;19.10;78.10;;;;;;4924745;29;20187;-69
2021/06/06 06:28:17;;;;;;;14.30;10.97;;;19.00;78.50;;;;;;4920007;29;20191;-69
2021/06/06 06:30:43;;;;;;;13.67;10.60;;;18.80;77.90;;;;;;4924870;29;20706;-69
2021/06/06 06:33:09;;;;;;;15.27;10.40;;;18.90;78.90;;;;;;4925259;29;20231;-68
2021/06/06 06:35:35;;;;;;;15.60;11.47;;;19.00;78.40;;;;;;4922442;29;20599;-73
2021/06/06 06:38:02;;;;;;;14.33;10.97;;;19.10;76.00;;;;;;4903873;29;21064;-66
2021/06/06 06:40:28;;;;;;;18.67;12.20;;;19.00;76.10;;;;;;4921620;29;20303;-67
2021/06/06 06:42:55;;;;;;;16.57;11.77;;;19.00;77.00;;;;;;4922376;29;20231;-67
2021/06/06 06:45:25;;;;;;;18.70;11.83;;;18.90;77.60;;;;;;4901701;29;20269;-67
2021/06/06 06:47:50;;;;;;;17.20;11.33;;;19.00;77.00;;;;;;4923288;29;20248;-67
2021/06/06 06:50:18;;;;;;;17.33;12.68;;;18.90;76.50;;;;;;4921731;29;20453;-66
2021/06/06 06:52:44;;;;;;;14.73;10.47;;;18.80;78.50;;;;;;4907276;29;20204;-65
2021/06/06 06:55:15;;;;;;;17.93;10.97;;;18.90;77.30;;;;;;4912816;29;20270;-66
2021/06/06 06:57:41;;;;;;;16.80;11.00;;;18.80;76.60;;;;;;4918368;29;20239;-66
2021/06/06 07:00:11;;;;;;;13.17;10.23;;;18.90;77.60;;;;;;4913175;29;20254;-66
2021/06/06 07:02:37;;;;;;;13.90;9.93;;;19.00;76.70;;;;;;4921783;28;20231;-66
2021/06/06 07:05:04;;;;;;;13.67;8.90;;;19.20;75.00;;;;;;4917266;29;20277;-66
2021/06/06 07:07:30;;;;;;;11.57;8.77;;;19.30;74.60;;;;;;4922692;29;20217;-66
2021/06/06 07:09:55;;;;;;;13.27;9.33;;;19.20;74.50;;;;;;4917834;29;20669;-66
2021/06/06 07:12:21;;;;;;;12.07;8.40;;;19.00;73.00;;;;;;4918703;28;20325;-66
2021/06/06 07:14:46;;;;;;;12.20;7.97;;;18.90;75.10;;;;;;4917927;29;20269;-66
2021/06/06 07:17:12;;;;;;;8.80;6.73;;;19.20;74.10;;;;;;4920582;29;20624;-67
2021/06/06 07:19:38;;;;;;;9.30;7.13;;;19.30;73.20;;;;;;4919855;29;20259;-67
2021/06/06 07:22:04;;;;;;;9.73;7.00;;;19.30;72.40;;;;;;4918646;29;20206;-66
2021/06/06 07:24:30;;;;;;;6.83;6.03;;;19.30;73.00;;;;;;4915100;29;20910;-67
2021/06/06 07:26:56;;;;;;;6.50;5.60;;;19.40;72.70;;;;;;4917278;29;20236;-66
2021/06/06 07:29:27;;;;;;;6.60;5.40;;;19.40;71.50;;;;;;4919562;29;20326;-66
2021/06/06 07:31:55;;;;;;;6.40;5.53;;;19.50;72.10;;;;;;4917832;29;20789;-66
2021/06/06 07:34:22;;;;;;;5.97;4.83;;;19.60;72.60;;;;;;4919942;29;20192;-66
2021/06/06 07:36:52;;;;;;;5.67;4.90;;;19.80;70.50;;;;;;4902419;29;22320;-66
2021/06/06 07:39:17;;;;;;;6.67;4.73;;;19.90;71.20;;;;;;4914476;29;20276;-66
2021/06/06 07:41:44;;;;;;;5.03;4.50;;;20.10;67.80;;;;;;4915382;29;20652;-66
2021/06/06 07:44:09;;;;;;;6.23;4.90;;;20.20;69.40;;;;;;4911154;29;20282;-67
2021/06/06 07:46:35;;;;;;;6.27;4.50;;;20.30;68.20;;;;;;4918940;29;20707;-67
2021/06/06 07:49:00;;;;;;;4.70;4.10;;;20.40;67.20;;;;;;4921683;29;20187;-67
2021/06/06 07:51:28;;;;;;;5.43;3.90;;;20.40;65.70;;;;;;4921324;29;20362;-67
2021/06/06 07:53:54;;;;;;;6.17;4.20;;;20.40;66.40;;;;;;4914614;29;20729;-67
2021/06/06 07:56:20;;;;;;;5.20;4.20;;;20.40;66.80;;;;;;4913914;29;20228;-65
2021/06/06 07:58:46;;;;;;;5.27;4.43;;;20.40;68.20;;;;;;4915218;29;20228;-68
2021/06/06 08:01:12;;;;;;;4.43;3.73;;;20.70;67.30;;;;;;4912913;29;20199;-66
2021/06/06 08:03:38;;;;;;;5.43;3.60;;;20.30;66.60;;;;;;4918887;29;20228;-66
2021/06/06 08:06:07;;;;;;;4.80;3.87;;;20.40;65.90;;;;;;4921879;28;20234;-66
2021/06/06 08:08:33;;;;;;;4.00;3.60;;;20.40;66.90;;;;;;4920783;29;20291;-70
2021/06/06 08:11:00;;;;;;;4.73;3.90;;;20.50;65.80;;;;;;4918357;29;20699;-71
2021/06/06 08:13:27;;;;;;;4.10;3.43;;;20.60;64.70;;;;;;4923074;29;20213;-70
2021/06/06 08:15:54;;;;;;;3.70;3.30;;;20.70;64.80;;;;;;4919671;29;20699;-69
2021/06/06 08:18:32;;;;;;;3.97;3.40;;;20.90;64.10;;;;;;4921789;29;20627;-71
2021/06/06 08:21:07;;;;;;;3.87;3.30;;;21.00;64.70;;;;;;4921094;29;20243;-71
2021/06/06 08:23:33;;;;;;;3.13;2.83;;;20.80;64.80;;;;;;4920124;29;20299;-69
2021/06/06 08:26:00;;;;;;;3.50;2.97;;;20.80;64.90;;;;;;4925401;28;20237;-71
2021/06/06 08:28:26;;;;;;;2.90;2.60;;;21.00;65.00;;;;;;4924130;29;20202;-71
2021/06/06 08:30:56;;;;;;;3.50;2.80;;;21.10;64.60;;;;;;4919697;29;20237;-70
2021/06/06 08:33:25;;;;;;;3.30;3.03;;;21.60;62.20;;;;;;4920547;29;20368;-70
2021/06/06 08:35:53;;;;;;;3.27;2.97;;;21.80;60.20;;;;;;4917606;29;20308;-70
2021/06/06 08:38:19;;;;;;;2.93;2.30;;;21.90;60.40;;;;;;4920782;29;20640;-70
2021/06/06 08:40:52;;;;;;;2.23;2.00;;;21.90;59.90;;;;;;4921085;29;20211;-71
2021/06/06 08:43:19;;;;;;;2.47;2.27;;;22.10;57.10;;;;;;4921098;29;20204;-71
2021/06/06 08:45:54;;;;;;;2.10;2.00;;;22.30;57.30;;;;;;4919981;29;20228;-69
2021/06/06 08:48:21;;;;;;;3.00;2.37;;;22.50;55.80;;;;;;4920809;29;20315;-70
2021/06/06 08:50:55;;;;;;;2.90;2.20;;;22.60;57.00;;;;;;4920200;29;20694;-70
2021/06/06 08:53:32;;;;;;;2.70;2.50;;;22.60;56.40;;;;;;4921024;29;20270;-70
2021/06/06 08:56:03;;;;;;;3.90;2.10;;;22.30;57.30;;;;;;4917621;29;20327;-70
2021/06/06 08:58:46;;;;;;;2.53;2.20;;;22.60;57.60;;;;;;4922170;29;20639;-70
2021/06/06 09:01:25;;;;;;;1.90;1.80;;;23.10;55.60;;;;;;4897606;29;20248;-70
2021/06/06 09:03:55;;;;;;;2.27;2.07;;;23.30;54.90;;;;;;4921376;29;20225;-71
2021/06/06 09:06:36;;;;;;;3.23;2.07;;;23.60;52.40;;;;;;4922068;29;20284;-71
2021/06/06 09:09:04;;;;;;;1.77;1.67;;;23.50;53.10;;;;;;4919113;28;20236;-70
2021/06/06 09:11:32;;;;;;;1.77;1.67;;;23.30;54.80;;;;;;4908494;29;20239;-71
2021/06/06 09:13:58;;;;;;;1.90;1.80;;;23.30;54.70;;;;;;4918283;29;20902;-70
2021/06/06 09:16:27;;;;;;;1.67;1.53;;;23.40;55.50;;;;;;4903199;29;20208;-69
2021/06/06 09:19:12;;;;;;;1.80;1.70;;;23.70;53.30;;;;;;4923677;29;20314;-71
2021/06/06 09:22:00;;;;;;;2.93;1.80;;;23.40;54.10;;;;;;4912537;29;20247;-70
2021/06/06 09:24:37;;;;;;;2.20;2.00;;;23.00;54.70;;;;;;4920664;29;20687;-70
2021/06/06 09:27:25;;;;;;;1.93;1.83;;;23.10;55.50;;;;;;4903710;29;20236;-70
2021/06/06 09:30:12;;;;;;;2.30;2.10;;;23.10;55.50;;;;;;4919135;29;20796;-71
2021/06/06 09:32:38;;;;;;;2.30;1.90;;;23.00;55.20;;;;;;4919929;29;20606;-70
2021/06/06 09:35:21;;;;;;;1.70;1.60;;;22.90;54.10;;;;;;4916628;29;20365;-70
2021/06/06 09:37:52;;;;;;;1.97;1.77;;;23.10;54.80;;;;;;4920243;28;20292;-70
2021/06/06 09:40:35;;;;;;;2.00;1.80;;;23.30;52.10;;;;;;4919550;29;20589;-70
2021/06/06 09:43:01;;;;;;;2.40;2.20;;;23.10;54.50;;;;;;4920141;29;20237;-70
2021/06/06 09:45:32;;;;;;;3.30;2.93;;;23.50;51.50;;;;;;4900708;29;20284;-70
2021/06/06 09:48:10;;;;;;;3.10;2.80;;;23.50;51.90;;;;;;4917966;29;20274;-70
2021/06/06 09:51:07;;;;;;;4.00;3.00;;;23.80;51.20;;;;;;4919938;29;20244;-69
2021/06/06 09:53:35;;;;;;;3.60;3.10;;;23.80;49.70;;;;;;4918810;28;20549;-69
2021/06/06 09:56:05;;;;;;;3.37;2.50;;;23.70;50.50;;;;;;4919315;29;20233;-69
2021/06/06 09:58:33;;;;;;;3.13;2.83;;;24.00;51.70;;;;;;4916811;29;20221;-70
2021/06/06 10:01:25;;;;;;;3.43;2.73;;;24.00;51.40;;;;;;4916479;29;20778;-69
2021/06/06 10:03:57;;;;;;;3.80;3.50;;;24.00;49.90;;;;;;4894511;29;20768;-69
2021/06/06 10:06:35;;;;;;;3.30;3.00;;;24.00;48.20;;;;;;4917196;29;20251;-70
2021/06/06 10:09:13;;;;;;;3.17;2.87;;;24.30;50.20;;;;;;4921434;29;20247;-70
2021/06/06 10:12:22;;;;;;;2.83;2.57;;;24.60;50.30;;;;;;4921647;29;20236;-70
2021/06/06 10:14:50;;;;;;;3.13;2.65;;;24.60;50.40;;;;;;4921610;29;20239;-70
2021/06/06 10:17:25;;;;;;;3.70;2.57;;;24.60;50.40;;;;;;4922199;29;20231;-70
2021/06/06 10:20:23;;;;;;;2.67;2.43;;;24.60;48.70;;;;;;4920174;29;20253;-70
2021/06/06 10:22:54;;;;;;;2.90;2.60;;;24.10;51.80;;;;;;4921415;29;20195;-70
2021/06/06 10:25:25;;;;;;;2.70;2.40;;;24.00;49.90;;;;;;4920170;29;20335;-70
2021/06/06 10:27:56;;;;;;;3.43;2.30;;;23.90;51.70;;;;;;4921594;29;20254;-71
2021/06/06 10:30:29;;;;;;;3.60;3.03;;;23.80;52.30;;;;;;4921144;29;20238;-69
2021/06/06 10:33:15;;;;;;;3.50;3.00;;;23.80;51.70;;;;;;4902935;29;20229;-70
2021/06/06 10:35:41;;;;;;;3.42;2.75;;;24.00;49.90;;;;;;4923437;29;20238;-70
2021/06/06 10:38:07;;;;;;;3.95;3.50;;;24.00;49.80;;;;;;4921239;29;20262;-70
2021/06/06 10:40:44;;;;;;;2.95;2.58;;;24.40;47.70;;;;;;4919994;29;20224;-70
2021/06/06 10:43:28;;;;;;;2.70;2.38;;;24.60;49.80;;;;;;4924806;29;20283;-69
2021/06/06 10:46:05;;;;;;;2.92;2.63;;;24.60;50.50;;;;;;4921736;29;20250;-70
2021/06/06 10:48:45;;;;;;;2.55;2.35;;;24.90;50.70;;;;;;4921491;29;20303;-70
2021/06/06 10:51:21;;;;;;;2.35;2.15;;;24.40;50.80;;;;;;4907179;29;20827;-70
2021/06/06 10:53:59;;;;;;;2.60;2.40;;;24.20;51.10;;;;;;4918490;28;20240;-66
2021/06/06 10:56:47;;;;;;;3.00;2.50;;;23.50;52.20;;;;;;4921860;29;20261;-66
2021/06/06 10:59:13;;;;;;;2.77;2.57;;;23.60;51.40;;;;;;4918662;29;20265;-65
2021/06/06 11:01:42;;;;;;;2.80;2.60;;;23.60;53.20;;;;;;4919005;29;20285;-65
2021/06/06 11:04:12;;;;;;;3.90;2.90;;;23.50;50.40;;;;;;4921568;29;20188;-66
2021/06/06 11:06:39;;;;;;;2.40;2.20;;;23.50;51.30;;;;;;4920467;28;20236;-66
2021/06/06 11:09:27;;;;;;;3.17;2.73;;;23.90;53.00;;;;;;4917259;29;20247;-66
2021/06/06 11:12:04;;;;;;;3.00;2.70;;;24.30;51.80;;;;;;4899393;29;20237;-66
2021/06/06 11:14:49;;;;;;;3.13;2.83;;;24.70;50.50;;;;;;4902889;29;20235;-66
2021/06/06 11:17:38;;;;;;;3.03;2.78;;;25.00;49.00;;;;;;4918229;29;20313;-65
2021/06/06 11:20:08;;;;;;;3.70;3.30;;;24.70;50.20;;;;;;4920798;29;20241;-71
2021/06/06 11:22:38;;;;;;;3.13;2.90;;;24.50;50.30;;;;;;4919903;29;20206;-70
2021/06/06 11:25:06;;;;;;;2.83;2.63;;;24.00;51.60;;;;;;4921654;28;20195;-71
2021/06/06 11:28:00;;;;;;;3.30;2.80;;;23.80;51.50;;;;;;4922468;29;20325;-70
2021/06/06 11:30:27;;;;;;;3.10;2.53;;;23.40;52.40;;;;;;4916977;29;20252;-67
2021/06/06 11:33:10;;;;;;;3.43;3.13;;;23.20;53.80;;;;;;4916521;29;20227;-67
2021/06/06 11:35:36;;;;;;;3.40;2.87;;;22.80;55.40;;;;;;4900116;29;20386;-67
2021/06/06 11:38:35;;;;;;;2.97;2.67;;;22.70;56.30;;;;;;4919228;28;20235;-67
2021/06/06 11:41:15;;;;;;;3.60;2.83;;;22.70;55.70;;;;;;4918879;29;20238;-67
2021/06/06 11:43:54;;;;;;;3.37;2.90;;;22.40;56.80;;;;;;4912655;29;20208;-70
2021/06/06 11:46:23;;;;;;;3.60;2.80;;;22.30;57.40;;;;;;4919461;29;20244;-67
2021/06/06 11:49:01;;;;;;;3.30;3.00;;;22.40;57.40;;;;;;4917688;29;20222;-67
2021/06/06 11:51:38;;;;;;;3.93;3.43;;;22.20;57.20;;;;;;4918316;29;20589;-67
2021/06/06 11:54:22;;;;;;;4.57;3.53;;;22.30;57.30;;;;;;4903931;29;20608;-67
2021/06/06 11:56:47;;;;;;;3.87;3.30;;;22.20;56.90;;;;;;4919746;29;20232;-67
2021/06/06 11:59:50;;;;;;;4.10;3.70;;;22.10;57.10;;;;;;4919383;29;20279;-68
2021/06/06 12:02:19;;;;;;;6.23;3.50;;;22.30;56.20;;;;;;4920293;29;22469;-68
2021/06/06 12:04:45;;;;;;;4.13;3.73;;;22.10;54.80;;;;;;4922418;29;20275;-68
2021/06/06 12:07:13;;;;;;;5.10;3.90;;;22.20;56.90;;;;;;4921725;29;20199;-68
2021/06/06 12:09:42;;;;;;;4.03;3.63;;;22.20;55.00;;;;;;4919553;29;20330;-67
2021/06/06 12:12:36;;;;;;;4.13;3.70;;;22.50;55.30;;;;;;4909354;29;20229;-68
2021/06/06 12:15:06;;;;;;;4.00;3.43;;;22.60;53.70;;;;;;4918103;29;20310;-68
2021/06/06 12:17:32;;;;;;;4.20;3.80;;;22.70;55.10;;;;;;4922229;29;20240;-68
2021/06/06 12:20:05;;;;;;;5.60;4.23;;;23.00;54.30;;;;;;4920771;29;20294;-68
2021/06/06 12:22:35;;;;;;;3.87;3.57;;;22.80;53.70;;;;;;4922376;29;20329;-68
2021/06/06 12:25:08;;;;;;;3.87;3.57;;;22.50;53.80;;;;;;4923411;29;20215;-68
2021/06/06 12:27:39;;;;;;;3.80;3.40;;;22.30;54.90;;;;;;4921027;28;20253;-68
2021/06/06 12:30:31;;;;;;;3.63;3.17;;;22.30;55.40;;;;;;4922841;29;20253;-67
2021/06/06 12:33:11;;;;;;;4.27;3.87;;;22.30;56.10;;;;;;4922986;29;20638;-68
2021/06/06 12:35:43;;;;;;;3.20;3.00;;;22.40;56.10;;;;;;4922529;29;20597;-68
2021/06/06 12:38:12;;;;;;;3.90;3.50;;;22.40;54.50;;;;;;4920570;29;20245;-68
2021/06/06 12:40:39;;;;;;;4.27;3.80;;;22.30;55.00;;;;;;4920707;29;20226;-68
2021/06/06 12:43:06;;;;;;;3.90;3.60;;;22.30;55.10;;;;;;4923110;29;20662;-68
2021/06/06 12:45:36;;;;;;;4.30;3.90;;;22.10;55.70;;;;;;4923125;29;20616;-68
2021/06/06 12:48:31;;;;;;;4.30;3.90;;;22.00;57.90;;;;;;4930036;29;20280;-68
2021/06/06 12:50:57;;;;;;;6.23;4.83;;;22.00;58.90;;;;;;4926766;28;20266;-67
2021/06/06 12:53:34;;;;;;;5.37;4.83;;;22.00;58.90;;;;;;4920634;29;20239;-68